Terminal Aerodrome Forecast
Issued by NWS Northern Indiana

Home | Current Version | Previous Version | Graphics & Text | Print | Product List | Glossary On
Versions: 1 2 3 4 5 6 7 8 9 10 11 12 13 14
000
FTUS43 KIWX 281100 RRA
TAFFWA
TAF
KFWA 281141Z 2812/2912 00000KT 5SM BR BKN250
      TEMPO 2812/2814 2SM BR
     FM281600 33004KT P6SM SCT250
     FM291000 00000KT 2SM BR SKC=

USA.gov is the U.S. government's official web portal to all federal, state and local government web resources and services.